Forside
METAR-TAF:

METAR-TAF

Lufthavne :

Taipei, Taiwan

Breddekreds: 25-05N, længdekreds: 121-13E, højde: 33 m

Aktuelle vejr

Denne rapport blev lavet for 34 minutter siden, kl. 23:00 UTC
Vind 5 kt fra nordøst
Temperatur 21°C
Fugtighed 83%
Tryk 1017 hPa
Sigt 10 km eller mere
Nogle få skyer i en højde af 2000 ft

METAR: RCTP 142300Z 04005KT 9999 FEW020 21/18 Q1017 NOSIG RMK A3005

Tid: 07:34 (23:34 UTC)

Vejrudsigter

Denne rapport blev lavet for 6 timer og 34 minutter siden, kl. 17:00 UTC
Foreløbig gælder fra 14 på 18 UTC til 15 på 24 UTC
Vind 15 kt fra nordøst
Sigt 10 km eller mere
Nogle få skyer i en højde af 1500 ft
Brudte skyer i en højde af 3200 ft
Midlertidig
fra 14 på 18 UTC til 14 på 24 UTC
Vind 10 kt fra øst
Nogle få skyer i en højde af 1200 ft
Brudte skyer i en højde af 2200 ft
ændring
fra 15 på 10 UTC til 15 på 12 UTC
Vind 10 kt fra øst

TAF: RCTP 141700Z 1418/1524 05015KT 9999 FEW015 BKN032 TEMPO 1418/1424 08010KT FEW012 BKN022 BECMG 1510/1512 08010KT

Vejrobservationer og prognoser fra mere end 4000 lufthavne (METAR og TAF).

De gule og røde prikker repræsenterer de meteorologiske stationer.

Flyt musen over at se navnet på stationen.

Så klik over at se vejr observationer og prognoser.

At skifte det kort: Klik på de grønne knapper med et sort kors for at zoome ind; på den grønne knap med en bindestreg for at zoome ud; eller på de grønne pile for tilstødende kort.


METAR-TAF: